Terminal Aerodrome Forecast
Issued by NWS King Salmon, AK

Home | Current Version | Previous Version | Text Only | Print | Product List | Glossary On
Versions: 1 2 3 4 5 6 7 8 9 10 11 12 13 14 15 16 17 18 19 20 21 22 23 24 25 26 27 28
000
FTAK31 PAFC 260541
TAFAKN
TAF
PAKN 260541Z 2606/2706 02011KT P6SM -RA SCT025 OVC035
      TEMPO 2606/2610 4SM -RA BR OVC025
     FM261000 27010KT 4SM -RA BR OVC015
     FM261300 27012G20KT 4SM -RA BR OVC007
     FM262200 29018G25KT 6SM -RA OVC015
     FM270000 29012KT P6SM OVC050=

USA.gov is the U.S. government's official web portal to all federal, state and local government web resources and services.